sensor_id;sensor_type;location;lat;lon;timestamp;P1;durP1;ratioP1;P2;durP2;ratioP2
60314;SDS011;46159;42.550;21.904;2023-03-31T00:01:24;27.15;;;14.52;;
60314;SDS011;46159;42.550;21.904;2023-03-31T00:03:50;27.45;;;15.10;;
60314;SDS011;46159;42.550;21.904;2023-03-31T00:06:25;34.72;;;20.42;;
60314;SDS011;46159;42.550;21.904;2023-03-31T00:08:52;38.40;;;21.83;;
60314;SDS011;46159;42.550;21.904;2023-03-31T00:11:18;33.25;;;21.40;;
60314;SDS011;46159;42.550;21.904;2023-03-31T00:13:44;34.00;;;22.25;;
60314;SDS011;46159;42.550;21.904;2023-03-31T00:16:10;38.30;;;22.15;;
60314;SDS011;46159;42.550;21.904;2023-03-31T00:18:36;32.92;;;18.23;;
60314;SDS011;46159;42.550;21.904;2023-03-31T00:21:09;27.17;;;16.58;;
60314;SDS011;46159;42.550;21.904;2023-03-31T00:23:38;29.48;;;17.80;;
60314;SDS011;46159;42.550;21.904;2023-03-31T00:26:05;28.15;;;16.70;;
60314;SDS011;46159;42.550;21.904;2023-03-31T00:28:31;22.40;;;11.45;;
60314;SDS011;46159;42.550;21.904;2023-03-31T00:31:01;22.13;;;13.70;;
60314;SDS011;46159;42.550;21.904;2023-03-31T00:33:27;24.45;;;13.30;;
60314;SDS011;46159;42.550;21.904;2023-03-31T00:35:53;21.88;;;12.38;;
60314;SDS011;46159;42.550;21.904;2023-03-31T00:38:20;22.33;;;12.50;;
60314;SDS011;46159;42.550;21.904;2023-03-31T00:40:46;26.33;;;12.95;;
60314;SDS011;46159;42.550;21.904;2023-03-31T00:46:19;25.52;;;13.93;;
60314;SDS011;46159;42.550;21.904;2023-03-31T00:48:50;30.00;;;16.55;;
60314;SDS011;46159;42.550;21.904;2023-03-31T00:51:16;35.25;;;20.48;;
60314;SDS011;46159;42.550;21.904;2023-03-31T00:53:45;27.75;;;16.92;;
60314;SDS011;46159;42.550;21.904;2023-03-31T00:56:13;26.30;;;16.60;;
60314;SDS011;46159;42.550;21.904;2023-03-31T00:58:40;29.13;;;17.77;;
60314;SDS011;46159;42.550;21.904;2023-03-31T01:01:12;31.40;;;19.92;;
60314;SDS011;46159;42.550;21.904;2023-03-31T01:03:39;27.25;;;17.08;;
60314;SDS011;46159;42.550;21.904;2023-03-31T01:06:06;25.90;;;17.65;;
60314;SDS011;46159;42.550;21.904;2023-03-31T01:08:34;23.15;;;14.73;;
60314;SDS011;46159;42.550;21.904;2023-03-31T01:11:02;20.85;;;12.45;;
60314;SDS011;46159;42.550;21.904;2023-03-31T01:13:30;13.20;;;7.35;;
60314;SDS011;46159;42.550;21.904;2023-03-31T01:15:56;14.38;;;7.15;;
60314;SDS011;46159;42.550;21.904;2023-03-31T01:18:22;14.40;;;7.30;;
60314;SDS011;46159;42.550;21.904;2023-03-31T01:23:57;11.60;;;6.13;;
60314;SDS011;46159;42.550;21.904;2023-03-31T01:55:17;19.48;;;11.02;;
60314;SDS011;46159;42.550;21.904;2023-03-31T01:57:55;19.50;;;10.82;;
60314;SDS011;46159;42.550;21.904;2023-03-31T02:00:26;19.70;;;10.80;;
60314;SDS011;46159;42.550;21.904;2023-03-31T02:05:22;20.45;;;12.80;;
60314;SDS011;46159;42.550;21.904;2023-03-31T02:07:51;32.25;;;17.92;;
60314;SDS011;46159;42.550;21.904;2023-03-31T02:10:19;31.73;;;18.65;;
60314;SDS011;46159;42.550;21.904;2023-03-31T02:12:46;31.80;;;19.90;;
60314;SDS011;46159;42.550;21.904;2023-03-31T02:15:13;37.00;;;22.58;;
60314;SDS011;46159;42.550;21.904;2023-03-31T02:17:42;43.55;;;25.95;;
60314;SDS011;46159;42.550;21.904;2023-03-31T02:20:11;36.30;;;22.80;;
60314;SDS011;46159;42.550;21.904;2023-03-31T02:22:40;36.13;;;23.13;;
60314;SDS011;46159;42.550;21.904;2023-03-31T02:25:09;35.10;;;22.50;;
60314;SDS011;46159;42.550;21.904;2023-03-31T02:27:37;33.28;;;20.75;;
60314;SDS011;46159;42.550;21.904;2023-03-31T02:30:04;36.60;;;25.60;;
60314;SDS011;46159;42.550;21.904;2023-03-31T02:32:34;24.55;;;16.33;;
60314;SDS011;46159;42.550;21.904;2023-03-31T02:35:01;27.63;;;15.88;;
60314;SDS011;46159;42.550;21.904;2023-03-31T02:37:27;26.65;;;16.55;;
60314;SDS011;46159;42.550;21.904;2023-03-31T02:39:55;27.88;;;17.75;;
60314;SDS011;46159;42.550;21.904;2023-03-31T02:42:22;25.42;;;17.08;;
60314;SDS011;46159;42.550;21.904;2023-03-31T02:44:48;27.10;;;19.00;;
60314;SDS011;46159;42.550;21.904;2023-03-31T02:47:15;27.25;;;16.80;;
60314;SDS011;46159;42.550;21.904;2023-03-31T02:49:50;23.35;;;15.32;;
60314;SDS011;46159;42.550;21.904;2023-03-31T02:55:08;30.42;;;19.42;;
60314;SDS011;46159;42.550;21.904;2023-03-31T02:57:52;34.42;;;22.85;;
60314;SDS011;46159;42.550;21.904;2023-03-31T03:06:35;34.63;;;21.38;;
60314;SDS011;46159;42.550;21.904;2023-03-31T03:14:30;27.77;;;18.35;;
60314;SDS011;46159;42.550;21.904;2023-03-31T03:17:17;28.67;;;19.42;;
60314;SDS011;46159;42.550;21.904;2023-03-31T03:19:49;28.13;;;16.88;;
60314;SDS011;46159;42.550;21.904;2023-03-31T03:22:16;24.95;;;15.60;;
60314;SDS011;46159;42.550;21.904;2023-03-31T03:24:42;25.02;;;16.20;;
60314;SDS011;46159;42.550;21.904;2023-03-31T03:27:08;23.30;;;15.82;;
60314;SDS011;46159;42.550;21.904;2023-03-31T03:29:34;21.75;;;14.88;;
60314;SDS011;46159;42.550;21.904;2023-03-31T03:32:00;24.23;;;14.90;;
60314;SDS011;46159;42.550;21.904;2023-03-31T03:34:26;23.60;;;13.77;;
60314;SDS011;46159;42.550;21.904;2023-03-31T03:36:52;23.45;;;15.77;;
60314;SDS011;46159;42.550;21.904;2023-03-31T03:39:19;39.38;;;24.10;;
60314;SDS011;46159;42.550;21.904;2023-03-31T03:41:45;27.08;;;16.20;;
60314;SDS011;46159;42.550;21.904;2023-03-31T03:44:11;16.92;;;11.48;;
60314;SDS011;46159;42.550;21.904;2023-03-31T03:46:37;23.83;;;14.65;;
60314;SDS011;46159;42.550;21.904;2023-03-31T03:49:03;26.30;;;14.90;;
60314;SDS011;46159;42.550;21.904;2023-03-31T03:51:29;23.75;;;16.48;;
60314;SDS011;46159;42.550;21.904;2023-03-31T03:53:55;18.85;;;11.10;;
60314;SDS011;46159;42.550;21.904;2023-03-31T03:56:21;18.00;;;9.60;;
60314;SDS011;46159;42.550;21.904;2023-03-31T03:58:47;14.57;;;9.45;;
60314;SDS011;46159;42.550;21.904;2023-03-31T04:01:13;17.70;;;10.00;;
60314;SDS011;46159;42.550;21.904;2023-03-31T04:03:40;16.10;;;10.13;;
60314;SDS011;46159;42.550;21.904;2023-03-31T04:06:06;16.52;;;8.55;;
60314;SDS011;46159;42.550;21.904;2023-03-31T04:08:32;19.25;;;10.18;;
60314;SDS011;46159;42.550;21.904;2023-03-31T04:10:58;20.50;;;11.80;;
60314;SDS011;46159;42.550;21.904;2023-03-31T04:13:24;21.30;;;13.30;;
60314;SDS011;46159;42.550;21.904;2023-03-31T04:15:50;24.13;;;13.38;;
60314;SDS011;46159;42.550;21.904;2023-03-31T04:18:16;24.60;;;14.35;;
60314;SDS011;46159;42.550;21.904;2023-03-31T04:20:49;17.42;;;9.20;;
60314;SDS011;46159;42.550;21.904;2023-03-31T04:23:19;19.65;;;9.73;;
60314;SDS011;46159;42.550;21.904;2023-03-31T04:25:47;18.30;;;9.40;;
60314;SDS011;46159;42.550;21.904;2023-03-31T04:28:13;12.65;;;7.72;;
60314;SDS011;46159;42.550;21.904;2023-03-31T04:30:40;16.10;;;8.65;;
60314;SDS011;46159;42.550;21.904;2023-03-31T04:33:06;18.95;;;8.73;;
60314;SDS011;46159;42.550;21.904;2023-03-31T04:35:32;15.43;;;7.72;;
60314;SDS011;46159;42.550;21.904;2023-03-31T04:38:14;13.57;;;7.30;;
60314;SDS011;46159;42.550;21.904;2023-03-31T04:40:42;17.90;;;8.85;;
60314;SDS011;46159;42.550;21.904;2023-03-31T04:43:08;14.35;;;8.90;;
60314;SDS011;46159;42.550;21.904;2023-03-31T04:45:34;18.17;;;10.40;;
60314;SDS011;46159;42.550;21.904;2023-03-31T04:48:00;17.77;;;11.73;;
60314;SDS011;46159;42.550;21.904;2023-03-31T04:50:26;23.02;;;12.18;;
60314;SDS011;46159;42.550;21.904;2023-03-31T04:52:52;21.42;;;12.52;;
60314;SDS011;46159;42.550;21.904;2023-03-31T04:55:19;24.60;;;14.70;;
60314;SDS011;46159;42.550;21.904;2023-03-31T04:57:46;21.73;;;13.02;;
60314;SDS011;46159;42.550;21.904;2023-03-31T05:00:12;24.55;;;13.20;;
60314;SDS011;46159;42.550;21.904;2023-03-31T05:02:38;103.50;;;51.67;;
60314;SDS011;46159;42.550;21.904;2023-03-31T05:05:04;27.45;;;15.35;;
60314;SDS011;46159;42.550;21.904;2023-03-31T05:07:30;26.58;;;14.88;;
60314;SDS011;46159;42.550;21.904;2023-03-31T05:09:56;22.25;;;14.73;;
60314;SDS011;46159;42.550;21.904;2023-03-31T05:12:22;46.60;;;30.08;;
60314;SDS011;46159;42.550;21.904;2023-03-31T05:14:49;38.30;;;27.52;;
60314;SDS011;46159;42.550;21.904;2023-03-31T05:17:15;52.38;;;35.50;;
60314;SDS011;46159;42.550;21.904;2023-03-31T05:19:42;49.33;;;31.92;;
60314;SDS011;46159;42.550;21.904;2023-03-31T05:22:08;51.08;;;31.85;;
60314;SDS011;46159;42.550;21.904;2023-03-31T05:24:34;48.42;;;30.33;;
60314;SDS011;46159;42.550;21.904;2023-03-31T05:27:00;46.30;;;31.02;;
60314;SDS011;46159;42.550;21.904;2023-03-31T05:29:26;43.15;;;28.63;;
60314;SDS011;46159;42.550;21.904;2023-03-31T05:31:53;44.85;;;27.85;;
60314;SDS011;46159;42.550;21.904;2023-03-31T05:34:19;40.47;;;24.58;;
60314;SDS011;46159;42.550;21.904;2023-03-31T05:36:46;45.13;;;28.63;;
60314;SDS011;46159;42.550;21.904;2023-03-31T05:39:14;61.15;;;34.80;;
60314;SDS011;46159;42.550;21.904;2023-03-31T05:41:40;57.58;;;36.83;;
60314;SDS011;46159;42.550;21.904;2023-03-31T05:44:06;66.97;;;44.55;;
60314;SDS011;46159;42.550;21.904;2023-03-31T05:46:32;86.00;;;54.00;;
60314;SDS011;46159;42.550;21.904;2023-03-31T05:48:58;56.90;;;41.13;;
60314;SDS011;46159;42.550;21.904;2023-03-31T05:51:24;53.33;;;38.72;;
60314;SDS011;46159;42.550;21.904;2023-03-31T05:53:50;65.70;;;44.28;;
60314;SDS011;46159;42.550;21.904;2023-03-31T05:56:16;76.90;;;48.85;;
60314;SDS011;46159;42.550;21.904;2023-03-31T05:58:42;64.72;;;42.92;;
60314;SDS011;46159;42.550;21.904;2023-03-31T06:01:09;61.45;;;42.95;;
60314;SDS011;46159;42.550;21.904;2023-03-31T06:03:37;61.47;;;41.30;;
60314;SDS011;46159;42.550;21.904;2023-03-31T06:06:05;43.83;;;32.30;;
60314;SDS011;46159;42.550;21.904;2023-03-31T06:08:32;41.63;;;29.42;;
60314;SDS011;46159;42.550;21.904;2023-03-31T06:10:58;35.35;;;23.10;;
60314;SDS011;46159;42.550;21.904;2023-03-31T06:13:24;30.67;;;20.10;;
60314;SDS011;46159;42.550;21.904;2023-03-31T06:15:57;33.15;;;20.73;;
60314;SDS011;46159;42.550;21.904;2023-03-31T06:18:24;30.77;;;19.80;;
60314;SDS011;46159;42.550;21.904;2023-03-31T06:20:52;29.92;;;21.67;;
60314;SDS011;46159;42.550;21.904;2023-03-31T06:23:18;26.23;;;17.92;;
60314;SDS011;46159;42.550;21.904;2023-03-31T06:25:45;30.35;;;20.83;;
60314;SDS011;46159;42.550;21.904;2023-03-31T06:28:11;25.80;;;17.30;;
60314;SDS011;46159;42.550;21.904;2023-03-31T06:30:37;22.45;;;15.40;;
60314;SDS011;46159;42.550;21.904;2023-03-31T06:33:03;29.50;;;16.77;;
60314;SDS011;46159;42.550;21.904;2023-03-31T06:35:30;39.55;;;27.55;;
60314;SDS011;46159;42.550;21.904;2023-03-31T06:37:56;34.25;;;26.70;;
60314;SDS011;46159;42.550;21.904;2023-03-31T06:40:22;35.03;;;24.08;;
60314;SDS011;46159;42.550;21.904;2023-03-31T06:42:48;36.88;;;25.58;;
60314;SDS011;46159;42.550;21.904;2023-03-31T06:45:15;32.33;;;24.17;;
60314;SDS011;46159;42.550;21.904;2023-03-31T06:47:41;36.42;;;24.23;;
60314;SDS011;46159;42.550;21.904;2023-03-31T06:50:08;28.77;;;21.17;;
60314;SDS011;46159;42.550;21.904;2023-03-31T06:52:34;28.25;;;19.52;;
60314;SDS011;46159;42.550;21.904;2023-03-31T06:55:01;29.70;;;19.35;;
60314;SDS011;46159;42.550;21.904;2023-03-31T06:57:27;31.88;;;20.77;;
60314;SDS011;46159;42.550;21.904;2023-03-31T06:59:53;37.47;;;22.95;;
60314;SDS011;46159;42.550;21.904;2023-03-31T07:02:20;37.00;;;20.08;;
60314;SDS011;46159;42.550;21.904;2023-03-31T07:04:46;31.40;;;18.70;;
60314;SDS011;46159;42.550;21.904;2023-03-31T07:07:12;26.15;;;17.75;;
60314;SDS011;46159;42.550;21.904;2023-03-31T07:09:38;22.63;;;16.17;;
60314;SDS011;46159;42.550;21.904;2023-03-31T07:12:04;24.33;;;13.98;;
60314;SDS011;46159;42.550;21.904;2023-03-31T07:14:30;26.33;;;13.20;;
60314;SDS011;46159;42.550;21.904;2023-03-31T07:16:57;19.85;;;12.50;;
60314;SDS011;46159;42.550;21.904;2023-03-31T07:19:23;26.85;;;12.85;;
60314;SDS011;46159;42.550;21.904;2023-03-31T07:21:49;27.67;;;13.55;;
60314;SDS011;46159;42.550;21.904;2023-03-31T07:24:15;18.08;;;10.93;;
60314;SDS011;46159;42.550;21.904;2023-03-31T07:26:42;18.77;;;11.50;;
60314;SDS011;46159;42.550;21.904;2023-03-31T07:29:08;17.35;;;11.30;;
60314;SDS011;46159;42.550;21.904;2023-03-31T07:31:37;22.85;;;14.23;;
60314;SDS011;46159;42.550;21.904;2023-03-31T07:34:03;17.30;;;9.73;;
60314;SDS011;46159;42.550;21.904;2023-03-31T07:36:29;17.58;;;9.75;;
60314;SDS011;46159;42.550;21.904;2023-03-31T07:38:55;26.08;;;12.38;;
60314;SDS011;46159;42.550;21.904;2023-03-31T07:41:22;30.05;;;12.90;;
60314;SDS011;46159;42.550;21.904;2023-03-31T07:43:48;20.20;;;11.75;;
60314;SDS011;46159;42.550;21.904;2023-03-31T07:46:19;26.48;;;12.07;;
60314;SDS011;46159;42.550;21.904;2023-03-31T07:48:45;22.33;;;14.63;;
60314;SDS011;46159;42.550;21.904;2023-03-31T07:51:13;22.77;;;12.77;;
60314;SDS011;46159;42.550;21.904;2023-03-31T07:53:39;36.72;;;23.33;;
60314;SDS011;46159;42.550;21.904;2023-03-31T07:56:05;22.45;;;14.38;;
60314;SDS011;46159;42.550;21.904;2023-03-31T07:58:31;28.27;;;13.20;;
60314;SDS011;46159;42.550;21.904;2023-03-31T08:00:57;21.23;;;10.98;;
60314;SDS011;46159;42.550;21.904;2023-03-31T08:03:23;25.05;;;15.38;;
60314;SDS011;46159;42.550;21.904;2023-03-31T08:05:50;16.40;;;11.15;;
60314;SDS011;46159;42.550;21.904;2023-03-31T08:08:16;16.88;;;10.70;;
60314;SDS011;46159;42.550;21.904;2023-03-31T08:10:42;19.10;;;10.07;;
60314;SDS011;46159;42.550;21.904;2023-03-31T08:13:08;17.63;;;10.50;;
60314;SDS011;46159;42.550;21.904;2023-03-31T08:15:35;13.55;;;7.32;;
60314;SDS011;46159;42.550;21.904;2023-03-31T08:18:02;21.45;;;8.35;;
60314;SDS011;46159;42.550;21.904;2023-03-31T08:20:28;21.48;;;11.07;;
60314;SDS011;46159;42.550;21.904;2023-03-31T08:22:54;21.27;;;8.25;;
60314;SDS011;46159;42.550;21.904;2023-03-31T08:25:20;18.88;;;8.60;;
60314;SDS011;46159;42.550;21.904;2023-03-31T08:27:47;18.67;;;8.60;;
60314;SDS011;46159;42.550;21.904;2023-03-31T08:30:15;16.20;;;8.73;;
60314;SDS011;46159;42.550;21.904;2023-03-31T08:32:41;24.70;;;10.27;;
60314;SDS011;46159;42.550;21.904;2023-03-31T08:35:08;15.85;;;7.45;;
60314;SDS011;46159;42.550;21.904;2023-03-31T08:37:34;11.10;;;5.05;;
60314;SDS011;46159;42.550;21.904;2023-03-31T08:40:02;11.05;;;5.50;;
60314;SDS011;46159;42.550;21.904;2023-03-31T08:42:40;16.83;;;6.35;;
60314;SDS011;46159;42.550;21.904;2023-03-31T08:47:43;8.75;;;3.47;;
60314;SDS011;46159;42.550;21.904;2023-03-31T08:50:12;11.77;;;3.72;;
60314;SDS011;46159;42.550;21.904;2023-03-31T08:52:47;9.88;;;2.80;;
60314;SDS011;46159;42.550;21.904;2023-03-31T08:55:23;10.73;;;3.85;;
60314;SDS011;46159;42.550;21.904;2023-03-31T08:57:53;12.00;;;4.43;;
60314;SDS011;46159;42.550;21.904;2023-03-31T09:00:20;11.60;;;4.50;;
60314;SDS011;46159;42.550;21.904;2023-03-31T09:02:59;14.38;;;4.88;;
60314;SDS011;46159;42.550;21.904;2023-03-31T09:05:43;13.50;;;6.38;;
60314;SDS011;46159;42.550;21.904;2023-03-31T09:08:13;13.98;;;7.53;;
60314;SDS011;46159;42.550;21.904;2023-03-31T09:10:52;12.15;;;5.00;;
60314;SDS011;46159;42.550;21.904;2023-03-31T09:16:13;11.10;;;3.53;;
60314;SDS011;46159;42.550;21.904;2023-03-31T09:18:41;7.70;;;3.00;;
60314;SDS011;46159;42.550;21.904;2023-03-31T09:21:18;10.32;;;2.53;;
60314;SDS011;46159;42.550;21.904;2023-03-31T09:26:24;9.00;;;3.20;;
60314;SDS011;46159;42.550;21.904;2023-03-31T09:28:51;13.43;;;4.63;;
60314;SDS011;46159;42.550;21.904;2023-03-31T09:31:18;10.52;;;3.83;;
60314;SDS011;46159;42.550;21.904;2023-03-31T09:33:46;10.75;;;3.97;;
60314;SDS011;46159;42.550;21.904;2023-03-31T09:36:13;11.77;;;2.90;;
60314;SDS011;46159;42.550;21.904;2023-03-31T09:38:40;8.55;;;3.10;;
60314;SDS011;46159;42.550;21.904;2023-03-31T09:41:08;12.27;;;3.33;;
60314;SDS011;46159;42.550;21.904;2023-03-31T09:43:35;10.77;;;3.60;;
60314;SDS011;46159;42.550;21.904;2023-03-31T09:46:03;13.95;;;3.35;;
60314;SDS011;46159;42.550;21.904;2023-03-31T09:48:32;9.75;;;3.50;;
60314;SDS011;46159;42.550;21.904;2023-03-31T09:53:37;8.82;;;3.72;;
60314;SDS011;46159;42.550;21.904;2023-03-31T09:56:05;9.18;;;4.03;;
60314;SDS011;46159;42.550;21.904;2023-03-31T09:58:39;8.30;;;2.97;;
60314;SDS011;46159;42.550;21.904;2023-03-31T10:01:05;8.60;;;2.80;;
60314;SDS011;46159;42.550;21.904;2023-03-31T10:03:43;10.43;;;4.07;;
60314;SDS011;46159;42.550;21.904;2023-03-31T10:06:10;10.18;;;3.15;;
60314;SDS011;46159;42.550;21.904;2023-03-31T10:08:40;11.27;;;2.97;;
60314;SDS011;46159;42.550;21.904;2023-03-31T10:11:08;8.10;;;2.38;;
60314;SDS011;46159;42.550;21.904;2023-03-31T10:13:45;9.30;;;4.05;;
60314;SDS011;46159;42.550;21.904;2023-03-31T10:16:22;9.32;;;3.10;;
60314;SDS011;46159;42.550;21.904;2023-03-31T10:18:48;8.15;;;3.13;;
60314;SDS011;46159;42.550;21.904;2023-03-31T10:21:25;6.57;;;2.50;;
60314;SDS011;46159;42.550;21.904;2023-03-31T10:23:52;7.32;;;2.85;;
60314;SDS011;46159;42.550;21.904;2023-03-31T10:26:20;11.95;;;3.92;;
60314;SDS011;46159;42.550;21.904;2023-03-31T10:28:47;9.95;;;3.10;;
60314;SDS011;46159;42.550;21.904;2023-03-31T10:31:14;9.20;;;3.92;;
60314;SDS011;46159;42.550;21.904;2023-03-31T10:33:43;13.55;;;5.53;;
60314;SDS011;46159;42.550;21.904;2023-03-31T10:36:28;12.75;;;5.60;;
60314;SDS011;46159;42.550;21.904;2023-03-31T10:38:56;11.80;;;4.40;;
60314;SDS011;46159;42.550;21.904;2023-03-31T10:41:23;13.23;;;5.85;;
60314;SDS011;46159;42.550;21.904;2023-03-31T10:43:53;9.15;;;3.90;;
60314;SDS011;46159;42.550;21.904;2023-03-31T10:46:20;7.95;;;2.95;;
60314;SDS011;46159;42.550;21.904;2023-03-31T10:48:46;17.30;;;4.03;;
60314;SDS011;46159;42.550;21.904;2023-03-31T10:51:19;13.57;;;5.22;;
60314;SDS011;46159;42.550;21.904;2023-03-31T11:11:57;13.13;;;5.63;;
60314;SDS011;46159;42.550;21.904;2023-03-31T11:17:16;8.73;;;3.47;;
60314;SDS011;46159;42.550;21.904;2023-03-31T11:20:08;11.48;;;5.30;;
60314;SDS011;46159;42.550;21.904;2023-03-31T11:41:01;13.38;;;3.92;;
60314;SDS011;46159;42.550;21.904;2023-03-31T11:43:35;10.30;;;4.00;;
60314;SDS011;46159;42.550;21.904;2023-03-31T11:48:36;10.73;;;3.67;;
60314;SDS011;46159;42.550;21.904;2023-03-31T11:51:04;11.77;;;5.43;;
60314;SDS011;46159;42.550;21.904;2023-03-31T11:53:35;10.30;;;3.63;;
60314;SDS011;46159;42.550;21.904;2023-03-31T11:56:02;14.95;;;4.82;;
60314;SDS011;46159;42.550;21.904;2023-03-31T11:58:32;16.33;;;4.32;;
60314;SDS011;46159;42.550;21.904;2023-03-31T12:01:07;15.63;;;5.82;;
60314;SDS011;46159;42.550;21.904;2023-03-31T12:06:20;10.38;;;4.55;;
60314;SDS011;46159;42.550;21.904;2023-03-31T12:14:50;15.80;;;5.63;;
60314;SDS011;46159;42.550;21.904;2023-03-31T12:17:04;15.57;;;3.95;;
60314;SDS011;46159;42.550;21.904;2023-03-31T12:19:36;18.52;;;6.70;;
60314;SDS011;46159;42.550;21.904;2023-03-31T12:22:12;25.77;;;9.57;;
60314;SDS011;46159;42.550;21.904;2023-03-31T12:24:40;20.52;;;10.95;;
60314;SDS011;46159;42.550;21.904;2023-03-31T12:29:34;20.33;;;9.02;;
60314;SDS011;46159;42.550;21.904;2023-03-31T12:32:21;11.80;;;5.68;;
60314;SDS011;46159;42.550;21.904;2023-03-31T12:45:11;14.90;;;6.82;;
60314;SDS011;46159;42.550;21.904;2023-03-31T12:57:45;34.22;;;26.63;;
60314;SDS011;46159;42.550;21.904;2023-03-31T13:02:42;21.83;;;16.48;;
60314;SDS011;46159;42.550;21.904;2023-03-31T13:07:53;20.65;;;15.07;;
60314;SDS011;46159;42.550;21.904;2023-03-31T13:10:24;11.30;;;5.60;;
60314;SDS011;46159;42.550;21.904;2023-03-31T13:15:22;17.05;;;8.10;;
60314;SDS011;46159;42.550;21.904;2023-03-31T13:18:12;9.55;;;2.60;;
60314;SDS011;46159;42.550;21.904;2023-03-31T13:20:38;11.15;;;4.93;;
60314;SDS011;46159;42.550;21.904;2023-03-31T13:28:15;15.10;;;8.25;;
60314;SDS011;46159;42.550;21.904;2023-03-31T13:33:08;10.90;;;4.63;;
60314;SDS011;46159;42.550;21.904;2023-03-31T13:35:36;10.25;;;3.40;;
60314;SDS011;46159;42.550;21.904;2023-03-31T13:38:19;14.68;;;6.95;;
60314;SDS011;46159;42.550;21.904;2023-03-31T13:48:49;15.38;;;6.53;;
60314;SDS011;46159;42.550;21.904;2023-03-31T13:59:45;16.77;;;7.90;;
60314;SDS011;46159;42.550;21.904;2023-03-31T14:07:46;15.75;;;6.47;;
60314;SDS011;46159;42.550;21.904;2023-03-31T14:12:48;12.43;;;6.00;;
60314;SDS011;46159;42.550;21.904;2023-03-31T14:15:17;18.95;;;8.23;;
60314;SDS011;46159;42.550;21.904;2023-03-31T14:17:44;18.60;;;11.68;;
60314;SDS011;46159;42.550;21.904;2023-03-31T14:22:58;16.80;;;10.90;;
60314;SDS011;46159;42.550;21.904;2023-03-31T14:38:20;10.60;;;4.95;;
60314;SDS011;46159;42.550;21.904;2023-03-31T14:40:48;17.33;;;7.00;;
60314;SDS011;46159;42.550;21.904;2023-03-31T14:43:19;11.35;;;5.18;;
60314;SDS011;46159;42.550;21.904;2023-03-31T14:45:46;15.40;;;4.63;;
60314;SDS011;46159;42.550;21.904;2023-03-31T14:48:12;20.80;;;5.50;;
60314;SDS011;46159;42.550;21.904;2023-03-31T14:50:43;33.90;;;12.95;;
60314;SDS011;46159;42.550;21.904;2023-03-31T14:53:18;27.70;;;15.57;;
60314;SDS011;46159;42.550;21.904;2023-03-31T14:55:44;25.67;;;13.77;;
60314;SDS011;46159;42.550;21.904;2023-03-31T14:58:15;15.32;;;7.75;;
60314;SDS011;46159;42.550;21.904;2023-03-31T15:00:43;21.67;;;10.95;;
60314;SDS011;46159;42.550;21.904;2023-03-31T15:03:11;19.27;;;9.00;;
60314;SDS011;46159;42.550;21.904;2023-03-31T15:05:38;19.90;;;9.48;;
60314;SDS011;46159;42.550;21.904;2023-03-31T15:08:05;18.52;;;7.65;;
60314;SDS011;46159;42.550;21.904;2023-03-31T15:10:39;17.83;;;11.43;;
60314;SDS011;46159;42.550;21.904;2023-03-31T15:13:10;16.52;;;7.50;;
60314;SDS011;46159;42.550;21.904;2023-03-31T15:15:37;13.25;;;6.57;;
60314;SDS011;46159;42.550;21.904;2023-03-31T15:18:03;19.17;;;9.73;;
60314;SDS011;46159;42.550;21.904;2023-03-31T15:20:30;44.83;;;28.83;;
60314;SDS011;46159;42.550;21.904;2023-03-31T15:22:57;27.65;;;14.80;;
60314;SDS011;46159;42.550;21.904;2023-03-31T15:25:33;19.63;;;11.60;;
60314;SDS011;46159;42.550;21.904;2023-03-31T15:28:05;14.60;;;8.20;;
60314;SDS011;46159;42.550;21.904;2023-03-31T15:30:32;17.33;;;7.15;;
60314;SDS011;46159;42.550;21.904;2023-03-31T15:32:58;16.50;;;7.93;;
60314;SDS011;46159;42.550;21.904;2023-03-31T15:35:26;17.05;;;7.60;;
60314;SDS011;46159;42.550;21.904;2023-03-31T15:37:54;13.07;;;8.38;;
60314;SDS011;46159;42.550;21.904;2023-03-31T15:40:37;17.95;;;9.40;;
60314;SDS011;46159;42.550;21.904;2023-03-31T15:43:05;14.98;;;6.22;;
60314;SDS011;46159;42.550;21.904;2023-03-31T15:45:46;14.40;;;5.65;;
60314;SDS011;46159;42.550;21.904;2023-03-31T15:48:15;15.15;;;7.95;;
60314;SDS011;46159;42.550;21.904;2023-03-31T15:50:41;13.07;;;6.00;;
60314;SDS011;46159;42.550;21.904;2023-03-31T15:54:11;15.57;;;8.63;;
60314;SDS011;46159;42.550;21.904;2023-03-31T15:56:04;14.05;;;9.00;;
60314;SDS011;46159;42.550;21.904;2023-03-31T16:01:16;12.95;;;5.15;;
60314;SDS011;46159;42.550;21.904;2023-03-31T16:03:42;18.45;;;5.82;;
60314;SDS011;46159;42.550;21.904;2023-03-31T16:08:42;18.75;;;11.23;;
60314;SDS011;46159;42.550;21.904;2023-03-31T16:13:38;18.35;;;8.95;;
60314;SDS011;46159;42.550;21.904;2023-03-31T16:16:15;13.63;;;5.85;;
60314;SDS011;46159;42.550;21.904;2023-03-31T16:18:49;25.95;;;13.27;;
60314;SDS011;46159;42.550;21.904;2023-03-31T16:21:20;28.88;;;16.70;;
60314;SDS011;46159;42.550;21.904;2023-03-31T16:23:49;32.42;;;17.40;;
60314;SDS011;46159;42.550;21.904;2023-03-31T16:26:23;41.22;;;18.20;;
60314;SDS011;46159;42.550;21.904;2023-03-31T16:28:50;32.17;;;16.80;;
60314;SDS011;46159;42.550;21.904;2023-03-31T16:31:28;31.17;;;17.98;;
60314;SDS011;46159;42.550;21.904;2023-03-31T16:33:55;32.33;;;20.50;;
60314;SDS011;46159;42.550;21.904;2023-03-31T16:36:21;29.02;;;16.52;;
60314;SDS011;46159;42.550;21.904;2023-03-31T16:38:50;29.75;;;18.65;;
60314;SDS011;46159;42.550;21.904;2023-03-31T16:41:17;30.00;;;17.63;;
60314;SDS011;46159;42.550;21.904;2023-03-31T16:43:44;25.60;;;16.15;;
60314;SDS011;46159;42.550;21.904;2023-03-31T16:46:10;27.95;;;14.13;;
60314;SDS011;46159;42.550;21.904;2023-03-31T16:48:37;30.23;;;19.48;;
60314;SDS011;46159;42.550;21.904;2023-03-31T16:51:03;31.85;;;18.42;;
60314;SDS011;46159;42.550;21.904;2023-03-31T16:53:30;25.70;;;14.15;;
60314;SDS011;46159;42.550;21.904;2023-03-31T16:56:01;24.67;;;13.07;;
60314;SDS011;46159;42.550;21.904;2023-03-31T16:58:27;63.95;;;34.20;;
60314;SDS011;46159;42.550;21.904;2023-03-31T17:00:54;38.78;;;21.08;;
60314;SDS011;46159;42.550;21.904;2023-03-31T17:03:20;34.80;;;18.92;;
60314;SDS011;46159;42.550;21.904;2023-03-31T17:05:47;33.05;;;18.73;;
60314;SDS011;46159;42.550;21.904;2023-03-31T17:08:17;35.38;;;20.15;;
60314;SDS011;46159;42.550;21.904;2023-03-31T17:10:51;36.67;;;21.70;;
60314;SDS011;46159;42.550;21.904;2023-03-31T17:13:17;36.30;;;20.73;;
60314;SDS011;46159;42.550;21.904;2023-03-31T17:15:43;56.50;;;37.28;;
60314;SDS011;46159;42.550;21.904;2023-03-31T17:18:10;42.95;;;27.95;;
60314;SDS011;46159;42.550;21.904;2023-03-31T17:20:36;38.50;;;24.73;;
60314;SDS011;46159;42.550;21.904;2023-03-31T17:23:02;59.22;;;34.63;;
60314;SDS011;46159;42.550;21.904;2023-03-31T17:25:28;42.33;;;25.73;;
60314;SDS011;46159;42.550;21.904;2023-03-31T17:27:55;58.60;;;42.92;;
60314;SDS011;46159;42.550;21.904;2023-03-31T17:30:21;37.97;;;21.00;;
60314;SDS011;46159;42.550;21.904;2023-03-31T17:32:47;37.58;;;22.23;;
60314;SDS011;46159;42.550;21.904;2023-03-31T17:35:14;34.25;;;21.30;;
60314;SDS011;46159;42.550;21.904;2023-03-31T17:37:45;46.42;;;25.30;;
60314;SDS011;46159;42.550;21.904;2023-03-31T17:40:11;53.10;;;30.05;;